sensor_id;sensor_type;location;lat;lon;timestamp;P1;durP1;ratioP1;P2;durP2;ratioP2
20832;SDS011;56075;51.264;7.150;2023-04-09T00:00:14;56.47;;;22.50;;
20832;SDS011;56075;51.264;7.150;2023-04-09T00:02:45;62.67;;;24.43;;
20832;SDS011;56075;51.264;7.150;2023-04-09T00:05:16;54.77;;;23.60;;
20832;SDS011;56075;51.264;7.150;2023-04-09T00:07:48;59.17;;;24.13;;
20832;SDS011;56075;51.264;7.150;2023-04-09T00:10:19;54.87;;;23.23;;
20832;SDS011;56075;51.264;7.150;2023-04-09T00:12:51;50.10;;;21.73;;
20832;SDS011;56075;51.264;7.150;2023-04-09T00:15:22;54.43;;;22.47;;
20832;SDS011;56075;51.264;7.150;2023-04-09T00:17:54;52.90;;;21.70;;
20832;SDS011;56075;51.264;7.150;2023-04-09T00:20:25;52.30;;;22.50;;
20832;SDS011;56075;51.264;7.150;2023-04-09T00:22:57;56.90;;;22.17;;
20832;SDS011;56075;51.264;7.150;2023-04-09T00:25:28;53.30;;;22.23;;
20832;SDS011;56075;51.264;7.150;2023-04-09T00:28:00;54.73;;;20.60;;
20832;SDS011;56075;51.264;7.150;2023-04-09T00:30:31;56.70;;;21.33;;
20832;SDS011;56075;51.264;7.150;2023-04-09T00:33:03;53.23;;;21.40;;
20832;SDS011;56075;51.264;7.150;2023-04-09T00:35:34;54.17;;;21.73;;
20832;SDS011;56075;51.264;7.150;2023-04-09T00:38:06;52.87;;;21.37;;
20832;SDS011;56075;51.264;7.150;2023-04-09T00:40:37;50.87;;;20.67;;
20832;SDS011;56075;51.264;7.150;2023-04-09T00:43:08;51.63;;;21.10;;
20832;SDS011;56075;51.264;7.150;2023-04-09T00:45:41;53.70;;;22.03;;
20832;SDS011;56075;51.264;7.150;2023-04-09T00:48:12;57.03;;;23.60;;
20832;SDS011;56075;51.264;7.150;2023-04-09T00:50:44;58.67;;;22.67;;
20832;SDS011;56075;51.264;7.150;2023-04-09T00:53:16;58.27;;;22.57;;
20832;SDS011;56075;51.264;7.150;2023-04-09T00:55:48;56.90;;;20.90;;
20832;SDS011;56075;51.264;7.150;2023-04-09T00:58:20;64.13;;;23.60;;
20832;SDS011;56075;51.264;7.150;2023-04-09T01:00:51;59.23;;;21.40;;
20832;SDS011;56075;51.264;7.150;2023-04-09T01:03:22;58.53;;;21.57;;
20832;SDS011;56075;51.264;7.150;2023-04-09T01:08:42;54.30;;;21.87;;
20832;SDS011;56075;51.264;7.150;2023-04-09T01:11:27;55.07;;;20.67;;
20832;SDS011;56075;51.264;7.150;2023-04-09T01:17:16;57.67;;;21.27;;
20832;SDS011;56075;51.264;7.150;2023-04-09T01:22:31;56.60;;;21.53;;
20832;SDS011;56075;51.264;7.150;2023-04-09T01:25:18;57.13;;;22.13;;
20832;SDS011;56075;51.264;7.150;2023-04-09T01:30:34;57.07;;;22.10;;
20832;SDS011;56075;51.264;7.150;2023-04-09T01:33:06;62.13;;;20.90;;
20832;SDS011;56075;51.264;7.150;2023-04-09T01:35:40;52.90;;;21.27;;
20832;SDS011;56075;51.264;7.150;2023-04-09T01:38:13;58.10;;;22.17;;
20832;SDS011;56075;51.264;7.150;2023-04-09T01:40:45;55.13;;;22.70;;
20832;SDS011;56075;51.264;7.150;2023-04-09T01:43:16;60.67;;;22.50;;
20832;SDS011;56075;51.264;7.150;2023-04-09T01:45:48;62.93;;;23.77;;
20832;SDS011;56075;51.264;7.150;2023-04-09T01:48:20;59.33;;;22.90;;
20832;SDS011;56075;51.264;7.150;2023-04-09T01:50:51;49.50;;;20.33;;
20832;SDS011;56075;51.264;7.150;2023-04-09T01:53:23;55.03;;;20.97;;
20832;SDS011;56075;51.264;7.150;2023-04-09T01:55:58;57.70;;;21.40;;
20832;SDS011;56075;51.264;7.150;2023-04-09T01:58:31;57.77;;;21.73;;
20832;SDS011;56075;51.264;7.150;2023-04-09T02:01:26;55.93;;;21.00;;
20832;SDS011;56075;51.264;7.150;2023-04-09T02:04:09;51.87;;;19.70;;
20832;SDS011;56075;51.264;7.150;2023-04-09T02:07:02;53.87;;;20.83;;
20832;SDS011;56075;51.264;7.150;2023-04-09T02:09:38;53.73;;;20.40;;
20832;SDS011;56075;51.264;7.150;2023-04-09T02:12:11;51.53;;;21.63;;
20832;SDS011;56075;51.264;7.150;2023-04-09T02:14:45;55.37;;;20.43;;
20832;SDS011;56075;51.264;7.150;2023-04-09T02:17:21;54.50;;;19.97;;
20832;SDS011;56075;51.264;7.150;2023-04-09T02:19:52;56.00;;;21.60;;
20832;SDS011;56075;51.264;7.150;2023-04-09T02:22:23;50.20;;;20.17;;
20832;SDS011;56075;51.264;7.150;2023-04-09T02:24:55;52.03;;;20.70;;
20832;SDS011;56075;51.264;7.150;2023-04-09T02:27:26;55.00;;;20.50;;
20832;SDS011;56075;51.264;7.150;2023-04-09T02:29:57;58.00;;;21.87;;
20832;SDS011;56075;51.264;7.150;2023-04-09T02:32:28;50.83;;;20.87;;
20832;SDS011;56075;51.264;7.150;2023-04-09T02:35:00;54.53;;;21.13;;
20832;SDS011;56075;51.264;7.150;2023-04-09T02:37:31;54.33;;;21.87;;
20832;SDS011;56075;51.264;7.150;2023-04-09T02:40:02;52.87;;;19.97;;
20832;SDS011;56075;51.264;7.150;2023-04-09T02:42:34;57.90;;;21.97;;
20832;SDS011;56075;51.264;7.150;2023-04-09T02:45:05;59.43;;;21.43;;
20832;SDS011;56075;51.264;7.150;2023-04-09T02:47:37;60.27;;;21.70;;
20832;SDS011;56075;51.264;7.150;2023-04-09T02:50:08;57.57;;;21.97;;
20832;SDS011;56075;51.264;7.150;2023-04-09T02:52:44;57.07;;;22.80;;
20832;SDS011;56075;51.264;7.150;2023-04-09T02:55:17;59.20;;;22.37;;
20832;SDS011;56075;51.264;7.150;2023-04-09T02:57:48;62.10;;;21.27;;
20832;SDS011;56075;51.264;7.150;2023-04-09T03:00:20;53.47;;;21.13;;
20832;SDS011;56075;51.264;7.150;2023-04-09T03:02:52;59.93;;;21.90;;
20832;SDS011;56075;51.264;7.150;2023-04-09T03:05:23;57.63;;;21.07;;
20832;SDS011;56075;51.264;7.150;2023-04-09T03:07:55;52.67;;;20.47;;
20832;SDS011;56075;51.264;7.150;2023-04-09T03:10:26;58.07;;;22.03;;
20832;SDS011;56075;51.264;7.150;2023-04-09T03:12:58;53.90;;;19.00;;
20832;SDS011;56075;51.264;7.150;2023-04-09T03:15:29;51.73;;;20.27;;
20832;SDS011;56075;51.264;7.150;2023-04-09T03:18:00;53.40;;;21.07;;
20832;SDS011;56075;51.264;7.150;2023-04-09T03:20:31;58.03;;;21.17;;
20832;SDS011;56075;51.264;7.150;2023-04-09T03:23:03;55.07;;;20.03;;
20832;SDS011;56075;51.264;7.150;2023-04-09T03:25:40;53.00;;;19.53;;
20832;SDS011;56075;51.264;7.150;2023-04-09T03:28:21;55.97;;;19.67;;
20832;SDS011;56075;51.264;7.150;2023-04-09T03:30:56;48.43;;;19.30;;
20832;SDS011;56075;51.264;7.150;2023-04-09T03:33:28;51.97;;;19.57;;
20832;SDS011;56075;51.264;7.150;2023-04-09T03:36:01;52.93;;;19.17;;
20832;SDS011;56075;51.264;7.150;2023-04-09T03:38:44;49.83;;;19.00;;
20832;SDS011;56075;51.264;7.150;2023-04-09T03:41:27;50.43;;;19.20;;
20832;SDS011;56075;51.264;7.150;2023-04-09T03:44:01;50.10;;;18.77;;
20832;SDS011;56075;51.264;7.150;2023-04-09T03:46:39;45.83;;;18.07;;
20832;SDS011;56075;51.264;7.150;2023-04-09T03:49:12;45.57;;;19.10;;
20832;SDS011;56075;51.264;7.150;2023-04-09T03:51:46;45.90;;;17.73;;
20832;SDS011;56075;51.264;7.150;2023-04-09T03:54:18;47.33;;;18.83;;
20832;SDS011;56075;51.264;7.150;2023-04-09T03:56:50;47.40;;;18.33;;
20832;SDS011;56075;51.264;7.150;2023-04-09T03:59:26;44.13;;;17.83;;
20832;SDS011;56075;51.264;7.150;2023-04-09T04:01:57;46.67;;;18.53;;
20832;SDS011;56075;51.264;7.150;2023-04-09T04:04:30;45.47;;;18.33;;
20832;SDS011;56075;51.264;7.150;2023-04-09T04:07:02;40.67;;;17.00;;
20832;SDS011;56075;51.264;7.150;2023-04-09T04:09:40;47.17;;;18.10;;
20832;SDS011;56075;51.264;7.150;2023-04-09T04:12:15;42.00;;;16.90;;
20832;SDS011;56075;51.264;7.150;2023-04-09T04:15:05;42.83;;;16.40;;
20832;SDS011;56075;51.264;7.150;2023-04-09T04:17:54;43.03;;;17.30;;
20832;SDS011;56075;51.264;7.150;2023-04-09T04:20:41;41.00;;;15.90;;
20832;SDS011;56075;51.264;7.150;2023-04-09T04:23:16;41.93;;;16.17;;
20832;SDS011;56075;51.264;7.150;2023-04-09T04:26:00;41.07;;;15.93;;
20832;SDS011;56075;51.264;7.150;2023-04-09T04:28:39;38.53;;;16.33;;
20832;SDS011;56075;51.264;7.150;2023-04-09T04:31:13;39.90;;;16.40;;
20832;SDS011;56075;51.264;7.150;2023-04-09T04:33:45;40.97;;;16.00;;
20832;SDS011;56075;51.264;7.150;2023-04-09T04:36:18;39.43;;;16.27;;
20832;SDS011;56075;51.264;7.150;2023-04-09T04:38:53;41.13;;;15.90;;
20832;SDS011;56075;51.264;7.150;2023-04-09T04:41:35;37.93;;;16.10;;
20832;SDS011;56075;51.264;7.150;2023-04-09T04:44:24;40.77;;;15.77;;
20832;SDS011;56075;51.264;7.150;2023-04-09T04:47:03;36.23;;;14.60;;
20832;SDS011;56075;51.264;7.150;2023-04-09T04:49:34;35.97;;;14.73;;
20832;SDS011;56075;51.264;7.150;2023-04-09T04:52:08;40.33;;;15.50;;
20832;SDS011;56075;51.264;7.150;2023-04-09T04:54:41;41.63;;;14.90;;
20832;SDS011;56075;51.264;7.150;2023-04-09T04:57:15;37.23;;;14.87;;
20832;SDS011;56075;51.264;7.150;2023-04-09T04:59:46;35.17;;;14.53;;
20832;SDS011;56075;51.264;7.150;2023-04-09T05:02:18;36.47;;;14.73;;
20832;SDS011;56075;51.264;7.150;2023-04-09T05:05:04;33.57;;;13.80;;
20832;SDS011;56075;51.264;7.150;2023-04-09T05:07:42;34.10;;;14.23;;
20832;SDS011;56075;51.264;7.150;2023-04-09T05:10:13;35.83;;;14.70;;
20832;SDS011;56075;51.264;7.150;2023-04-09T05:12:46;40.63;;;15.70;;
20832;SDS011;56075;51.264;7.150;2023-04-09T05:15:25;32.73;;;12.87;;
20832;SDS011;56075;51.264;7.150;2023-04-09T05:17:57;32.90;;;13.17;;
20832;SDS011;56075;51.264;7.150;2023-04-09T05:20:29;36.20;;;13.53;;
20832;SDS011;56075;51.264;7.150;2023-04-09T05:23:14;33.50;;;12.90;;
20832;SDS011;56075;51.264;7.150;2023-04-09T05:25:50;34.23;;;13.27;;
20832;SDS011;56075;51.264;7.150;2023-04-09T05:28:29;35.67;;;12.60;;
20832;SDS011;56075;51.264;7.150;2023-04-09T05:31:10;35.87;;;13.27;;
20832;SDS011;56075;51.264;7.150;2023-04-09T05:33:47;34.07;;;12.77;;
20832;SDS011;56075;51.264;7.150;2023-04-09T05:36:24;38.57;;;14.23;;
20832;SDS011;56075;51.264;7.150;2023-04-09T05:38:56;32.87;;;12.77;;
20832;SDS011;56075;51.264;7.150;2023-04-09T05:41:28;27.07;;;11.67;;
20832;SDS011;56075;51.264;7.150;2023-04-09T05:44:15;29.43;;;11.73;;
20832;SDS011;56075;51.264;7.150;2023-04-09T05:46:46;30.93;;;12.50;;
20832;SDS011;56075;51.264;7.150;2023-04-09T05:49:21;33.30;;;12.70;;
20832;SDS011;56075;51.264;7.150;2023-04-09T05:51:55;32.43;;;11.97;;
20832;SDS011;56075;51.264;7.150;2023-04-09T05:54:30;30.43;;;12.33;;
20832;SDS011;56075;51.264;7.150;2023-04-09T05:57:02;27.87;;;11.70;;
20832;SDS011;56075;51.264;7.150;2023-04-09T05:59:37;29.67;;;11.90;;
20832;SDS011;56075;51.264;7.150;2023-04-09T06:02:08;26.17;;;11.47;;
20832;SDS011;56075;51.264;7.150;2023-04-09T06:04:40;29.27;;;11.67;;
20832;SDS011;56075;51.264;7.150;2023-04-09T06:07:11;31.13;;;11.90;;
20832;SDS011;56075;51.264;7.150;2023-04-09T06:09:43;28.67;;;11.30;;
20832;SDS011;56075;51.264;7.150;2023-04-09T06:12:16;31.13;;;12.80;;
20832;SDS011;56075;51.264;7.150;2023-04-09T06:14:47;27.70;;;11.10;;
20832;SDS011;56075;51.264;7.150;2023-04-09T06:17:18;30.80;;;11.13;;
20832;SDS011;56075;51.264;7.150;2023-04-09T06:19:50;30.70;;;11.60;;
20832;SDS011;56075;51.264;7.150;2023-04-09T06:22:21;26.13;;;10.13;;
20832;SDS011;56075;51.264;7.150;2023-04-09T06:24:53;26.30;;;10.40;;
20832;SDS011;56075;51.264;7.150;2023-04-09T06:27:24;24.00;;;9.83;;
20832;SDS011;56075;51.264;7.150;2023-04-09T06:29:56;29.73;;;10.77;;
20832;SDS011;56075;51.264;7.150;2023-04-09T06:32:27;27.17;;;10.13;;
20832;SDS011;56075;51.264;7.150;2023-04-09T06:34:58;24.07;;;9.53;;
20832;SDS011;56075;51.264;7.150;2023-04-09T06:37:29;26.63;;;10.30;;
20832;SDS011;56075;51.264;7.150;2023-04-09T06:40:01;24.20;;;10.27;;
20832;SDS011;56075;51.264;7.150;2023-04-09T06:42:32;21.97;;;10.17;;
20832;SDS011;56075;51.264;7.150;2023-04-09T06:45:19;22.27;;;9.30;;
20832;SDS011;56075;51.264;7.150;2023-04-09T06:47:51;20.37;;;8.73;;
20832;SDS011;56075;51.264;7.150;2023-04-09T06:53:10;21.70;;;8.93;;
20832;SDS011;56075;51.264;7.150;2023-04-09T06:55:41;22.70;;;9.43;;
20832;SDS011;56075;51.264;7.150;2023-04-09T06:58:13;19.73;;;7.80;;
20832;SDS011;56075;51.264;7.150;2023-04-09T07:00:44;21.23;;;8.40;;
20832;SDS011;56075;51.264;7.150;2023-04-09T07:03:15;21.13;;;8.80;;
20832;SDS011;56075;51.264;7.150;2023-04-09T07:05:46;20.40;;;8.70;;
20832;SDS011;56075;51.264;7.150;2023-04-09T07:08:18;19.57;;;8.70;;
20832;SDS011;56075;51.264;7.150;2023-04-09T07:10:50;19.77;;;9.10;;
20832;SDS011;56075;51.264;7.150;2023-04-09T07:13:21;19.17;;;8.17;;
20832;SDS011;56075;51.264;7.150;2023-04-09T07:15:52;19.70;;;8.33;;
20832;SDS011;56075;51.264;7.150;2023-04-09T07:18:24;16.30;;;6.83;;
20832;SDS011;56075;51.264;7.150;2023-04-09T07:20:56;18.43;;;7.93;;
20832;SDS011;56075;51.264;7.150;2023-04-09T07:23:27;16.63;;;7.83;;
20832;SDS011;56075;51.264;7.150;2023-04-09T07:26:00;18.17;;;8.17;;
20832;SDS011;56075;51.264;7.150;2023-04-09T07:28:34;16.70;;;7.63;;
20832;SDS011;56075;51.264;7.150;2023-04-09T07:31:06;18.60;;;8.10;;
20832;SDS011;56075;51.264;7.150;2023-04-09T07:33:37;16.33;;;7.43;;
20832;SDS011;56075;51.264;7.150;2023-04-09T07:36:08;17.80;;;7.80;;
20832;SDS011;56075;51.264;7.150;2023-04-09T07:38:39;14.27;;;6.97;;
20832;SDS011;56075;51.264;7.150;2023-04-09T07:41:11;17.30;;;8.83;;
20832;SDS011;56075;51.264;7.150;2023-04-09T07:43:42;17.70;;;8.63;;
20832;SDS011;56075;51.264;7.150;2023-04-09T07:46:19;15.93;;;7.03;;
20832;SDS011;56075;51.264;7.150;2023-04-09T07:48:51;14.27;;;6.77;;
20832;SDS011;56075;51.264;7.150;2023-04-09T07:51:22;14.77;;;6.50;;
20832;SDS011;56075;51.264;7.150;2023-04-09T07:53:54;15.20;;;6.93;;
20832;SDS011;56075;51.264;7.150;2023-04-09T07:56:25;13.53;;;6.33;;
20832;SDS011;56075;51.264;7.150;2023-04-09T07:58:56;15.37;;;6.63;;
20832;SDS011;56075;51.264;7.150;2023-04-09T08:01:27;14.53;;;6.97;;
20832;SDS011;56075;51.264;7.150;2023-04-09T08:03:59;14.27;;;6.47;;
20832;SDS011;56075;51.264;7.150;2023-04-09T08:06:30;13.53;;;6.23;;
20832;SDS011;56075;51.264;7.150;2023-04-09T08:09:01;10.70;;;5.57;;
20832;SDS011;56075;51.264;7.150;2023-04-09T08:11:33;12.40;;;6.00;;
20832;SDS011;56075;51.264;7.150;2023-04-09T08:14:04;12.60;;;5.60;;
20832;SDS011;56075;51.264;7.150;2023-04-09T08:16:35;12.13;;;5.27;;
20832;SDS011;56075;51.264;7.150;2023-04-09T08:19:07;12.03;;;6.10;;
20832;SDS011;56075;51.264;7.150;2023-04-09T08:21:38;11.57;;;5.10;;
20832;SDS011;56075;51.264;7.150;2023-04-09T08:24:13;10.90;;;5.30;;
20832;SDS011;56075;51.264;7.150;2023-04-09T08:26:45;10.00;;;4.97;;
20832;SDS011;56075;51.264;7.150;2023-04-09T08:29:16;10.68;;;5.18;;
20832;SDS011;56075;51.264;7.150;2023-04-09T08:31:47;11.30;;;5.80;;
20832;SDS011;56075;51.264;7.150;2023-04-09T08:34:18;12.00;;;5.83;;
20832;SDS011;56075;51.264;7.150;2023-04-09T08:36:51;12.47;;;5.53;;
20832;SDS011;56075;51.264;7.150;2023-04-09T08:39:22;11.57;;;5.57;;
20832;SDS011;56075;51.264;7.150;2023-04-09T08:41:57;11.93;;;5.28;;
20832;SDS011;56075;51.264;7.150;2023-04-09T08:44:32;11.80;;;5.25;;
20832;SDS011;56075;51.264;7.150;2023-04-09T08:47:06;9.07;;;4.10;;
20832;SDS011;56075;51.264;7.150;2023-04-09T08:49:41;8.13;;;3.85;;
20832;SDS011;56075;51.264;7.150;2023-04-09T08:52:12;8.45;;;4.22;;
20832;SDS011;56075;51.264;7.150;2023-04-09T08:54:45;10.15;;;4.38;;
20832;SDS011;56075;51.264;7.150;2023-04-09T08:57:17;9.40;;;4.40;;
20832;SDS011;56075;51.264;7.150;2023-04-09T08:59:48;9.00;;;4.20;;
20832;SDS011;56075;51.264;7.150;2023-04-09T09:02:19;10.50;;;4.47;;
20832;SDS011;56075;51.264;7.150;2023-04-09T09:04:50;8.95;;;4.20;;
20832;SDS011;56075;51.264;7.150;2023-04-09T09:07:24;10.35;;;4.35;;
20832;SDS011;56075;51.264;7.150;2023-04-09T09:09:58;8.13;;;4.03;;
20832;SDS011;56075;51.264;7.150;2023-04-09T09:15:23;8.48;;;4.45;;
20832;SDS011;56075;51.264;7.150;2023-04-09T09:17:57;8.45;;;4.00;;
20832;SDS011;56075;51.264;7.150;2023-04-09T09:20:29;9.75;;;4.70;;
20832;SDS011;56075;51.264;7.150;2023-04-09T09:23:01;9.63;;;4.38;;
20832;SDS011;56075;51.264;7.150;2023-04-09T09:25:38;9.15;;;4.30;;
20832;SDS011;56075;51.264;7.150;2023-04-09T09:28:10;9.32;;;4.45;;
20832;SDS011;56075;51.264;7.150;2023-04-09T09:30:42;9.15;;;4.43;;
20832;SDS011;56075;51.264;7.150;2023-04-09T09:33:15;9.30;;;4.35;;
20832;SDS011;56075;51.264;7.150;2023-04-09T09:35:47;10.27;;;4.85;;
20832;SDS011;56075;51.264;7.150;2023-04-09T09:38:19;9.27;;;4.60;;
20832;SDS011;56075;51.264;7.150;2023-04-09T09:40:50;9.70;;;4.75;;
20832;SDS011;56075;51.264;7.150;2023-04-09T09:43:22;9.05;;;4.38;;
20832;SDS011;56075;51.264;7.150;2023-04-09T09:45:53;10.02;;;5.10;;
20832;SDS011;56075;51.264;7.150;2023-04-09T09:48:26;11.32;;;4.63;;
20832;SDS011;56075;51.264;7.150;2023-04-09T09:50:57;11.80;;;4.90;;
20832;SDS011;56075;51.264;7.150;2023-04-09T09:53:29;9.73;;;4.57;;
20832;SDS011;56075;51.264;7.150;2023-04-09T09:56:03;8.25;;;4.50;;
20832;SDS011;56075;51.264;7.150;2023-04-09T09:58:46;7.90;;;3.80;;
20832;SDS011;56075;51.264;7.150;2023-04-09T10:01:23;8.32;;;4.10;;
20832;SDS011;56075;51.264;7.150;2023-04-09T10:03:59;8.68;;;4.15;;
20832;SDS011;56075;51.264;7.150;2023-04-09T10:06:31;9.48;;;4.97;;
20832;SDS011;56075;51.264;7.150;2023-04-09T10:09:04;9.43;;;4.50;;
20832;SDS011;56075;51.264;7.150;2023-04-09T10:11:36;8.95;;;4.55;;
20832;SDS011;56075;51.264;7.150;2023-04-09T10:14:08;11.73;;;4.30;;
20832;SDS011;56075;51.264;7.150;2023-04-09T10:16:40;8.30;;;4.22;;
20832;SDS011;56075;51.264;7.150;2023-04-09T10:19:11;8.27;;;4.13;;
20832;SDS011;56075;51.264;7.150;2023-04-09T10:21:48;8.45;;;4.03;;
20832;SDS011;56075;51.264;7.150;2023-04-09T10:24:25;9.30;;;4.60;;
20832;SDS011;56075;51.264;7.150;2023-04-09T10:26:56;10.77;;;5.03;;
20832;SDS011;56075;51.264;7.150;2023-04-09T10:29:43;7.25;;;4.13;;
20832;SDS011;56075;51.264;7.150;2023-04-09T10:32:19;10.05;;;5.20;;
20832;SDS011;56075;51.264;7.150;2023-04-09T10:34:51;10.90;;;5.03;;
20832;SDS011;56075;51.264;7.150;2023-04-09T10:37:26;10.32;;;5.47;;
20832;SDS011;56075;51.264;7.150;2023-04-09T10:39:58;11.43;;;5.05;;
20832;SDS011;56075;51.264;7.150;2023-04-09T10:42:31;11.27;;;5.32;;
20832;SDS011;56075;51.264;7.150;2023-04-09T10:45:06;11.27;;;5.03;;
20832;SDS011;56075;51.264;7.150;2023-04-09T10:47:38;9.85;;;4.88;;
20832;SDS011;56075;51.264;7.150;2023-04-09T10:52:51;13.70;;;5.35;;
20832;SDS011;56075;51.264;7.150;2023-04-09T10:55:58;9.05;;;5.20;;
20832;SDS011;56075;51.264;7.150;2023-04-09T10:58:22;8.77;;;4.90;;
20832;SDS011;56075;51.264;7.150;2023-04-09T11:00:53;11.32;;;5.25;;
20832;SDS011;56075;51.264;7.150;2023-04-09T11:03:25;12.45;;;5.40;;
20832;SDS011;56075;51.264;7.150;2023-04-09T11:06:01;8.35;;;4.80;;
20832;SDS011;56075;51.264;7.150;2023-04-09T11:08:35;8.68;;;4.90;;
20832;SDS011;56075;51.264;7.150;2023-04-09T11:11:08;8.35;;;4.55;;
20832;SDS011;56075;51.264;7.150;2023-04-09T11:13:40;8.93;;;4.78;;
20832;SDS011;56075;51.264;7.150;2023-04-09T11:16:12;10.25;;;5.05;;
20832;SDS011;56075;51.264;7.150;2023-04-09T11:18:43;8.57;;;4.72;;
20832;SDS011;56075;51.264;7.150;2023-04-09T11:21:16;8.20;;;4.45;;
20832;SDS011;56075;51.264;7.150;2023-04-09T11:23:50;9.90;;;4.63;;
20832;SDS011;56075;51.264;7.150;2023-04-09T11:26:23;9.70;;;5.13;;
20832;SDS011;56075;51.264;7.150;2023-04-09T11:28:57;9.38;;;5.10;;
20832;SDS011;56075;51.264;7.150;2023-04-09T11:31:35;8.65;;;4.85;;
20832;SDS011;56075;51.264;7.150;2023-04-09T11:34:08;8.98;;;4.60;;
20832;SDS011;56075;51.264;7.150;2023-04-09T11:36:42;11.75;;;4.85;;
20832;SDS011;56075;51.264;7.150;2023-04-09T11:39:18;8.88;;;4.30;;
20832;SDS011;56075;51.264;7.150;2023-04-09T11:41:49;7.68;;;4.45;;
20832;SDS011;56075;51.264;7.150;2023-04-09T11:44:20;7.72;;;4.25;;
20832;SDS011;56075;51.264;7.150;2023-04-09T11:46:52;8.73;;;4.55;;
20832;SDS011;56075;51.264;7.150;2023-04-09T11:49:24;8.70;;;4.30;;
20832;SDS011;56075;51.264;7.150;2023-04-09T11:51:55;8.45;;;4.20;;
20832;SDS011;56075;51.264;7.150;2023-04-09T11:54:31;9.02;;;4.55;;
20832;SDS011;56075;51.264;7.150;2023-04-09T11:57:03;8.40;;;4.70;;
20832;SDS011;56075;51.264;7.150;2023-04-09T11:59:36;8.52;;;4.95;;
20832;SDS011;56075;51.264;7.150;2023-04-09T12:02:08;8.90;;;4.78;;
20832;SDS011;56075;51.264;7.150;2023-04-09T12:04:47;9.27;;;5.18;;
20832;SDS011;56075;51.264;7.150;2023-04-09T12:07:20;9.45;;;4.95;;
20832;SDS011;56075;51.264;7.150;2023-04-09T12:09:51;8.77;;;4.72;;
20832;SDS011;56075;51.264;7.150;2023-04-09T12:12:22;9.98;;;4.95;;
20832;SDS011;56075;51.264;7.150;2023-04-09T12:14:53;8.80;;;4.88;;
20832;SDS011;56075;51.264;7.150;2023-04-09T12:17:28;9.18;;;5.00;;
20832;SDS011;56075;51.264;7.150;2023-04-09T12:20:03;10.52;;;5.20;;
20832;SDS011;56075;51.264;7.150;2023-04-09T12:22:37;8.68;;;4.65;;
20832;SDS011;56075;51.264;7.150;2023-04-09T12:25:10;10.82;;;5.57;;
20832;SDS011;56075;51.264;7.150;2023-04-09T12:27:41;9.45;;;5.47;;
20832;SDS011;56075;51.264;7.150;2023-04-09T12:30:12;10.07;;;5.20;;
20832;SDS011;56075;51.264;7.150;2023-04-09T12:32:44;9.88;;;5.05;;
20832;SDS011;56075;51.264;7.150;2023-04-09T12:35:15;11.00;;;5.70;;
20832;SDS011;56075;51.264;7.150;2023-04-09T12:37:47;9.27;;;5.22;;
20832;SDS011;56075;51.264;7.150;2023-04-09T12:40:19;11.13;;;5.47;;
20832;SDS011;56075;51.264;7.150;2023-04-09T12:42:50;10.85;;;5.68;;
20832;SDS011;56075;51.264;7.150;2023-04-09T12:45:21;9.02;;;5.00;;
20832;SDS011;56075;51.264;7.150;2023-04-09T12:47:53;10.63;;;5.40;;
20832;SDS011;56075;51.264;7.150;2023-04-09T12:50:24;10.10;;;5.78;;
20832;SDS011;56075;51.264;7.150;2023-04-09T12:52:55;8.77;;;4.85;;
20832;SDS011;56075;51.264;7.150;2023-04-09T12:55:26;8.60;;;4.65;;
20832;SDS011;56075;51.264;7.150;2023-04-09T12:57:57;7.80;;;4.47;;
20832;SDS011;56075;51.264;7.150;2023-04-09T13:00:28;8.48;;;4.72;;
20832;SDS011;56075;51.264;7.150;2023-04-09T13:03:00;8.25;;;4.95;;
20832;SDS011;56075;51.264;7.150;2023-04-09T13:05:31;8.55;;;4.65;;
20832;SDS011;56075;51.264;7.150;2023-04-09T13:08:05;7.50;;;4.80;;
20832;SDS011;56075;51.264;7.150;2023-04-09T13:10:36;8.13;;;4.28;;
20832;SDS011;56075;51.264;7.150;2023-04-09T13:13:07;7.45;;;4.25;;
20832;SDS011;56075;51.264;7.150;2023-04-09T13:15:41;8.60;;;4.45;;
20832;SDS011;56075;51.264;7.150;2023-04-09T13:18:13;8.43;;;4.70;;
20832;SDS011;56075;51.264;7.150;2023-04-09T13:20:44;7.57;;;4.32;;
20832;SDS011;56075;51.264;7.150;2023-04-09T13:23:15;6.38;;;4.00;;
20832;SDS011;56075;51.264;7.150;2023-04-09T13:25:46;6.43;;;3.88;;
20832;SDS011;56075;51.264;7.150;2023-04-09T13:28:17;6.45;;;3.88;;
20832;SDS011;56075;51.264;7.150;2023-04-09T13:30:48;6.75;;;4.00;;
20832;SDS011;56075;51.264;7.150;2023-04-09T13:33:19;6.45;;;4.25;;
20832;SDS011;56075;51.264;7.150;2023-04-09T13:35:51;6.72;;;4.18;;
20832;SDS011;56075;51.264;7.150;2023-04-09T13:38:22;7.18;;;3.92;;
20832;SDS011;56075;51.264;7.150;2023-04-09T13:40:53;7.25;;;3.90;;
20832;SDS011;56075;51.264;7.150;2023-04-09T13:43:24;6.50;;;3.78;;
20832;SDS011;56075;51.264;7.150;2023-04-09T13:45:58;6.57;;;4.07;;
20832;SDS011;56075;51.264;7.150;2023-04-09T13:48:29;7.10;;;3.97;;
20832;SDS011;56075;51.264;7.150;2023-04-09T13:51:00;6.03;;;3.65;;
20832;SDS011;56075;51.264;7.150;2023-04-09T13:53:32;7.03;;;4.00;;
20832;SDS011;56075;51.264;7.150;2023-04-09T13:56:03;6.68;;;3.75;;
20832;SDS011;56075;51.264;7.150;2023-04-09T13:58:34;6.20;;;3.60;;
20832;SDS011;56075;51.264;7.150;2023-04-09T14:01:06;6.50;;;3.80;;
20832;SDS011;56075;51.264;7.150;2023-04-09T14:03:37;7.20;;;4.05;;
20832;SDS011;56075;51.264;7.150;2023-04-09T14:06:09;7.28;;;3.97;;
20832;SDS011;56075;51.264;7.150;2023-04-09T14:08:41;6.90;;;3.80;;
20832;SDS011;56075;51.264;7.150;2023-04-09T14:11:12;7.10;;;4.00;;
20832;SDS011;56075;51.264;7.150;2023-04-09T14:13:45;6.45;;;3.95;;
20832;SDS011;56075;51.264;7.150;2023-04-09T14:16:16;6.70;;;3.80;;
20832;SDS011;56075;51.264;7.150;2023-04-09T14:18:47;5.78;;;3.50;;
20832;SDS011;56075;51.264;7.150;2023-04-09T14:21:18;5.15;;;3.13;;
20832;SDS011;56075;51.264;7.150;2023-04-09T14:23:49;5.82;;;3.40;;
20832;SDS011;56075;51.264;7.150;2023-04-09T14:26:21;6.45;;;3.70;;
20832;SDS011;56075;51.264;7.150;2023-04-09T14:28:53;5.40;;;3.38;;
20832;SDS011;56075;51.264;7.150;2023-04-09T14:31:24;5.53;;;3.35;;
20832;SDS011;56075;51.264;7.150;2023-04-09T14:33:55;5.53;;;3.20;;
20832;SDS011;56075;51.264;7.150;2023-04-09T14:36:27;5.72;;;3.47;;
20832;SDS011;56075;51.264;7.150;2023-04-09T14:38:58;7.00;;;3.33;;
20832;SDS011;56075;51.264;7.150;2023-04-09T14:41:29;6.65;;;3.83;;
20832;SDS011;56075;51.264;7.150;2023-04-09T14:44:03;4.60;;;3.05;;
20832;SDS011;56075;51.264;7.150;2023-04-09T14:46:34;5.57;;;3.45;;
20832;SDS011;56075;51.264;7.150;2023-04-09T14:49:06;5.43;;;3.28;;
20832;SDS011;56075;51.264;7.150;2023-04-09T14:51:37;5.50;;;3.60;;
20832;SDS011;56075;51.264;7.150;2023-04-09T14:54:08;4.53;;;3.08;;
20832;SDS011;56075;51.264;7.150;2023-04-09T14:56:39;5.40;;;3.20;;
20832;SDS011;56075;51.264;7.150;2023-04-09T14:59:11;5.15;;;3.47;;
20832;SDS011;56075;51.264;7.150;2023-04-09T15:01:42;5.15;;;3.30;;
20832;SDS011;56075;51.264;7.150;2023-04-09T15:04:13;5.78;;;3.28;;
20832;SDS011;56075;51.264;7.150;2023-04-09T15:06:45;6.07;;;3.55;;
20832;SDS011;56075;51.264;7.150;2023-04-09T15:09:16;5.50;;;3.20;;
20832;SDS011;56075;51.264;7.150;2023-04-09T15:11:47;6.40;;;3.78;;
20832;SDS011;56075;51.264;7.150;2023-04-09T15:14:21;6.22;;;3.58;;
20832;SDS011;56075;51.264;7.150;2023-04-09T15:16:53;5.32;;;3.58;;
20832;SDS011;56075;51.264;7.150;2023-04-09T15:19:25;5.50;;;3.60;;
20832;SDS011;56075;51.264;7.150;2023-04-09T15:21:56;6.13;;;3.50;;
20832;SDS011;56075;51.264;7.150;2023-04-09T15:24:27;8.73;;;3.70;;
20832;SDS011;56075;51.264;7.150;2023-04-09T15:26:58;6.05;;;3.95;;